Time;durP1;ratioP1;P1;durP2;ratioP2;P2;SDS_P1;SDS_P2;PMS_P1;PMS_P2;Temp;Humidity;BMP_temperature;BMP_pressure;BME280_temperature;BME280_humidity;BME280_pressure;Samples;Min_cycle;Max_cycle;Signal;HPM_P1;HPM_P2
2023/12/12 00:02:14;;;;;;;3.37;2.73;;;7.50;1.00;;;;;;5145266;27;20865;-76
2023/12/12 00:04:41;;;;;;;3.03;2.38;;;7.50;1.00;;;;;;5148634;27;20448;-76
2023/12/12 00:07:08;;;;;;;3.30;3.00;;;7.50;1.00;;;;;;5145342;27;20261;-76
2023/12/12 00:09:35;;;;;;;3.10;2.80;;;7.50;1.00;;;;;;5145628;27;21109;-76
2023/12/12 00:12:02;;;;;;;3.00;2.70;;;7.50;1.00;;;;;;5146474;27;20475;-76
2023/12/12 00:14:29;;;;;;;5.70;3.30;;;7.50;1.00;;;;;;5145726;27;20918;-79
2023/12/12 00:16:56;;;;;;;3.30;3.00;;;7.50;1.00;;;;;;5148512;27;20319;-77
2023/12/12 00:19:24;;;;;;;3.30;2.77;;;7.50;1.00;;;;;;5148162;27;20268;-77
2023/12/12 00:21:51;;;;;;;3.37;3.07;;;7.50;1.00;;;;;;5148011;27;20836;-76
2023/12/12 00:24:18;;;;;;;2.60;2.40;;;7.40;1.00;;;;;;5144256;27;21243;-79
2023/12/12 00:26:45;;;;;;;3.10;2.80;;;7.50;1.00;;;;;;5146078;27;20459;-79
2023/12/12 00:29:12;;;;;;;3.40;3.03;;;7.50;1.00;;;;;;5141938;27;20478;-76
2023/12/12 00:31:39;;;;;;;3.10;2.80;;;7.50;1.00;;;;;;5148030;27;20544;-78
2023/12/12 00:34:06;;;;;;;3.90;3.50;;;7.50;1.00;;;;;;5144985;27;20520;-76
2023/12/12 00:36:36;;;;;;;3.17;2.87;;;7.50;1.00;;;;;;5145280;27;20457;-76
2023/12/12 00:39:03;;;;;;;3.67;3.37;;;7.60;1.00;;;;;;5147296;27;21975;-77
2023/12/12 00:41:33;;;;;;;3.57;3.27;;;7.50;1.00;;;;;;5150237;27;21204;-77
2023/12/12 00:44:01;;;;;;;3.33;2.83;;;7.50;1.00;;;;;;5139015;27;21408;-76
2023/12/12 00:46:28;;;;;;;5.43;2.87;;;7.50;1.00;;;;;;5150720;27;20467;-76
2023/12/12 00:48:55;;;;;;;3.13;2.70;;;7.50;1.00;;;;;;5149041;27;20467;-77
2023/12/12 00:51:22;;;;;;;4.40;2.77;;;7.50;1.00;;;;;;5149261;27;20465;-77
2023/12/12 00:53:51;;;;;;;3.43;3.13;;;7.40;1.00;;;;;;5142233;27;20674;-76
2023/12/12 00:56:18;;;;;;;3.93;3.50;;;7.40;1.00;;;;;;5147441;27;20456;-75
2023/12/12 00:58:45;;;;;;;3.40;3.10;;;7.40;1.00;;;;;;5151552;27;20805;-76
2023/12/12 01:01:14;;;;;;;3.37;3.07;;;7.40;1.00;;;;;;5145161;27;20421;-75
2023/12/12 01:03:41;;;;;;;4.28;3.38;;;7.40;1.00;;;;;;5145894;27;20550;-77
2023/12/12 01:06:08;;;;;;;4.13;2.90;;;7.40;1.00;;;;;;5147534;27;20232;-80
2023/12/12 01:08:35;;;;;;;3.23;2.93;;;7.40;1.00;;;;;;5146429;27;20539;-75
2023/12/12 01:11:04;;;;;;;6.00;3.80;;;7.40;1.00;;;;;;5149285;27;20453;-75
2023/12/12 01:13:31;;;;;;;4.57;3.90;;;7.40;1.00;;;;;;5149198;27;20479;-74
2023/12/12 01:15:58;;;;;;;4.30;3.27;;;7.40;1.00;;;;;;5139877;27;21018;-75
2023/12/12 01:18:26;;;;;;;3.70;3.40;;;7.40;1.00;;;;;;5151554;27;20481;-75
2023/12/12 01:20:53;;;;;;;3.10;2.80;;;7.50;1.00;;;;;;5149149;27;21208;-75
2023/12/12 01:23:20;;;;;;;4.50;3.97;;;7.40;1.00;;;;;;5146675;27;21102;-75
2023/12/12 01:25:48;;;;;;;4.00;3.67;;;7.40;1.00;;;;;;5154216;27;20447;-76
2023/12/12 01:28:17;;;;;;;3.50;3.20;;;7.50;1.00;;;;;;5146470;27;20963;-76
2023/12/12 01:30:44;;;;;;;3.30;3.00;;;7.50;1.00;;;;;;5144700;27;21225;-76
2023/12/12 01:33:11;;;;;;;5.13;4.03;;;7.40;1.00;;;;;;5141650;27;20467;-75
2023/12/12 01:35:38;;;;;;;4.15;3.40;;;7.50;1.00;;;;;;5144661;27;20480;-75
2023/12/12 01:38:08;;;;;;;3.70;3.13;;;7.50;1.00;;;;;;5142470;27;20236;-76
2023/12/12 01:40:35;;;;;;;3.30;3.00;;;7.50;1.00;;;;;;5128516;27;20551;-76
2023/12/12 01:43:06;;;;;;;4.20;3.80;;;7.50;1.00;;;;;;5128336;27;20464;-78
2023/12/12 01:45:34;;;;;;;3.63;3.33;;;7.50;1.00;;;;;;5124905;27;20488;-77
2023/12/12 01:48:04;;;;;;;4.10;3.17;;;7.50;1.00;;;;;;5125092;27;20326;-76
2023/12/12 01:50:31;;;;;;;4.57;4.17;;;7.50;1.00;;;;;;5126857;27;20528;-75
2023/12/12 01:52:59;;;;;;;4.40;3.83;;;7.50;1.00;;;;;;5123220;27;20502;-75
2023/12/12 01:55:27;;;;;;;4.30;3.50;;;7.60;1.00;;;;;;5111786;27;20496;-75
2023/12/12 01:57:54;;;;;;;3.87;3.50;;;7.60;1.00;;;;;;5117884;27;20529;-75
2023/12/12 02:00:21;;;;;;;3.87;3.53;;;7.60;1.00;;;;;;5128369;27;20671;-75
2023/12/12 02:02:50;;;;;;;5.40;4.30;;;7.50;1.00;;;;;;5131931;27;20491;-77
2023/12/12 02:05:17;;;;;;;3.58;3.28;;;7.60;1.00;;;;;;5129899;27;20464;-74
2023/12/12 02:07:45;;;;;;;4.90;3.97;;;7.50;1.00;;;;;;5131303;27;20280;-76
2023/12/12 02:10:12;;;;;;;5.00;3.83;;;7.50;1.00;;;;;;5130999;27;20470;-75
2023/12/12 02:12:39;;;;;;;3.87;3.47;;;7.50;1.00;;;;;;5123436;27;20487;-76
2023/12/12 02:15:07;;;;;;;4.22;3.33;;;7.60;1.00;;;;;;5132052;27;21068;-75
2023/12/12 02:17:35;;;;;;;4.83;4.13;;;7.50;1.00;;;;;;5127167;27;20333;-75
2023/12/12 02:20:08;;;;;;;4.27;3.60;;;7.60;1.00;;;;;;5128412;27;20487;-75
2023/12/12 02:22:37;;;;;;;4.80;3.80;;;7.60;1.00;;;;;;5120947;27;20544;-76
2023/12/12 02:25:08;;;;;;;4.37;3.30;;;7.60;1.00;;;;;;5127376;27;20538;-74
2023/12/12 02:27:37;;;;;;;4.30;3.23;;;7.60;1.00;;;;;;5127742;27;20624;-76
2023/12/12 02:30:07;;;;;;;4.27;3.40;;;7.70;1.00;;;;;;5127613;27;21259;-77
2023/12/12 02:32:33;;;;;;;3.30;2.87;;;7.70;1.00;;;;;;5130865;27;20565;-75
2023/12/12 02:35:01;;;;;;;4.87;3.90;;;7.70;1.00;;;;;;5128522;27;20852;-76
2023/12/12 02:37:28;;;;;;;3.20;2.67;;;7.70;1.00;;;;;;5126537;27;20549;-76
2023/12/12 02:39:56;;;;;;;5.70;2.90;;;7.80;1.00;;;;;;5135421;27;20476;-76
2023/12/12 02:42:23;;;;;;;3.83;3.50;;;7.90;1.00;;;;;;5148875;27;20468;-76
2023/12/12 02:44:50;;;;;;;2.87;2.60;;;7.80;1.00;;;;;;5140874;27;20463;-76
2023/12/12 02:47:17;;;;;;;2.33;2.17;;;7.90;1.00;;;;;;5145345;27;20457;-77
2023/12/12 02:49:45;;;;;;;2.57;2.37;;;7.90;1.00;;;;;;5138380;27;20462;-76
2023/12/12 02:52:14;;;;;;;3.23;2.37;;;7.80;1.00;;;;;;5137557;27;20509;-76
2023/12/12 02:54:41;;;;;;;2.83;2.57;;;7.80;1.00;;;;;;5143291;27;21176;-77
2023/12/12 02:57:10;;;;;;;2.53;2.33;;;7.90;1.00;;;;;;5150907;27;20863;-77
2023/12/12 02:59:37;;;;;;;3.30;3.00;;;7.90;1.00;;;;;;5136158;27;20905;-76
2023/12/12 03:02:04;;;;;;;2.57;2.33;;;7.90;1.00;;;;;;5141048;27;20472;-77
2023/12/12 03:04:31;;;;;;;3.93;3.27;;;7.90;1.00;;;;;;5148400;27;20500;-76
2023/12/12 03:06:58;;;;;;;3.63;2.70;;;7.90;1.00;;;;;;5142712;27;20447;-76
2023/12/12 03:09:25;;;;;;;4.13;2.80;;;8.00;1.00;;;;;;5147585;27;20459;-77
2023/12/12 03:11:53;;;;;;;4.97;3.37;;;8.10;1.00;;;;;;5148019;27;20491;-75
2023/12/12 03:14:27;;;;;;;3.30;3.00;;;8.10;1.00;;;;;;5150301;27;20456;-76
2023/12/12 03:16:54;;;;;;;4.83;3.77;;;8.10;1.00;;;;;;5146699;27;20873;-76
2023/12/12 03:19:21;;;;;;;4.30;3.90;;;8.00;1.00;;;;;;5150896;27;20452;-76
2023/12/12 03:21:48;;;;;;;4.13;3.73;;;7.90;1.00;;;;;;5148668;27;20467;-76
2023/12/12 03:24:15;;;;;;;5.60;4.77;;;8.00;1.00;;;;;;5145225;27;20460;-78
2023/12/12 03:26:41;;;;;;;5.07;4.57;;;8.00;1.00;;;;;;5141387;27;20517;-76
2023/12/12 03:29:08;;;;;;;6.10;5.33;;;8.10;1.00;;;;;;5149166;27;20977;-77
2023/12/12 03:31:38;;;;;;;8.83;5.63;;;8.10;1.00;;;;;;5146020;27;20448;-78
2023/12/12 03:34:06;;;;;;;6.90;5.80;;;8.20;1.00;;;;;;5151616;27;20948;-77
2023/12/12 03:36:33;;;;;;;6.60;5.90;;;8.20;1.00;;;;;;5152359;27;20966;-83
2023/12/12 03:39:00;;;;;;;8.50;7.37;;;8.20;1.00;;;;;;5153939;27;20467;-83
2023/12/12 03:41:29;;;;;;;7.00;6.30;;;8.20;1.00;;;;;;5155832;27;21268;-83
2023/12/12 03:43:59;;;;;;;10.67;9.10;;;8.20;1.00;;;;;;5156308;27;20425;-85
2023/12/12 03:46:26;;;;;;;9.70;8.70;;;8.20;1.00;;;;;;5143979;27;21246;-84
2023/12/12 03:48:54;;;;;;;9.27;7.93;;;8.30;1.00;;;;;;5150078;27;21170;-83
2023/12/12 03:51:22;;;;;;;8.93;8.03;;;8.20;1.00;;;;;;5152222;27;20448;-82
2023/12/12 03:53:49;;;;;;;10.70;9.60;;;8.30;1.00;;;;;;5150331;27;20480;-80
2023/12/12 03:56:16;;;;;;;11.40;9.50;;;8.20;1.00;;;;;;5151012;27;20508;-76
2023/12/12 03:58:43;;;;;;;11.23;9.30;;;8.20;1.00;;;;;;5152693;27;20536;-75
2023/12/12 04:01:10;;;;;;;13.40;10.93;;;8.10;1.00;;;;;;5150453;27;20837;-76
2023/12/12 04:03:38;;;;;;;10.73;9.40;;;8.10;1.00;;;;;;5124199;27;20534;-76
2023/12/12 04:06:08;;;;;;;12.80;9.83;;;8.20;1.00;;;;;;5147468;27;20455;-76
2023/12/12 04:08:36;;;;;;;10.40;8.90;;;8.20;1.00;;;;;;5148576;27;20443;-75
2023/12/12 04:11:06;;;;;;;10.33;8.93;;;8.20;1.00;;;;;;5146423;27;20458;-76
2023/12/12 04:13:35;;;;;;;11.43;10.33;;;8.20;1.00;;;;;;5150209;27;20465;-78
2023/12/12 04:16:02;;;;;;;11.77;9.10;;;8.10;1.00;;;;;;5150536;27;21350;-80
2023/12/12 04:18:29;;;;;;;12.77;9.17;;;8.10;1.00;;;;;;5152388;27;20448;-78
2023/12/12 04:20:56;;;;;;;11.97;9.60;;;8.10;1.00;;;;;;5151722;27;20442;-78
2023/12/12 04:23:25;;;;;;;12.20;9.07;;;8.10;1.00;;;;;;5137842;27;21362;-78
2023/12/12 04:25:54;;;;;;;10.13;9.13;;;8.10;1.00;;;;;;5152734;27;20454;-79
2023/12/12 04:28:21;;;;;;;9.73;8.40;;;8.20;1.00;;;;;;5146408;27;20497;-80
2023/12/12 04:30:51;;;;;;;12.40;10.17;;;8.20;1.00;;;;;;5147347;27;20562;-80
2023/12/12 04:33:18;;;;;;;10.97;9.83;;;8.20;1.00;;;;;;5147948;27;20446;-78
2023/12/12 04:35:45;;;;;;;10.53;9.43;;;8.20;1.00;;;;;;5146991;27;20453;-79
2023/12/12 04:38:12;;;;;;;12.00;9.50;;;8.10;1.00;;;;;;5151409;27;20452;-80
2023/12/12 04:40:40;;;;;;;11.50;10.33;;;8.00;1.00;;;;;;5150259;27;20456;-83
2023/12/12 04:43:07;;;;;;;10.13;8.80;;;8.10;1.00;;;;;;5135752;27;20517;-78
2023/12/12 04:45:34;;;;;;;9.40;8.00;;;8.00;1.00;;;;;;5148444;27;20481;-78
2023/12/12 04:48:01;;;;;;;11.20;9.10;;;8.00;1.00;;;;;;5136851;27;21353;-84
2023/12/12 04:50:28;;;;;;;7.33;4.50;;;8.10;1.00;;;;;;5144910;27;20464;-83
2023/12/12 04:52:55;;;;;;;4.00;3.50;;;8.00;1.00;;;;;;5148236;27;20471;-81
2023/12/12 04:55:22;;;;;;;5.07;3.70;;;8.00;1.00;;;;;;5150396;27;20448;-83
2023/12/12 04:57:50;;;;;;;4.07;3.30;;;8.00;1.00;;;;;;5143426;27;20408;-82
2023/12/12 05:00:21;;;;;;;3.40;3.10;;;7.90;1.00;;;;;;5125826;27;20489;-84
2023/12/12 05:02:48;;;;;;;5.13;4.63;;;7.80;1.00;;;;;;5142189;27;20425;-82
2023/12/12 05:05:15;;;;;;;5.43;4.20;;;7.90;1.00;;;;;;5142655;27;21042;-83
2023/12/12 05:07:43;;;;;;;4.03;3.37;;;7.80;1.00;;;;;;5146394;27;20529;-78
2023/12/12 05:10:10;;;;;;;6.23;4.67;;;7.70;1.00;;;;;;5145678;27;20468;-78
2023/12/12 05:12:37;;;;;;;6.00;4.57;;;7.70;1.00;;;;;;5140178;27;20576;-82
2023/12/12 05:15:07;;;;;;;6.70;4.97;;;7.70;1.00;;;;;;5141646;27;20245;-78
2023/12/12 05:17:34;;;;;;;5.97;4.80;;;7.60;1.00;;;;;;5142313;27;20420;-81
2023/12/12 05:20:01;;;;;;;6.93;5.20;;;7.60;1.00;;;;;;5148337;27;20524;-81
2023/12/12 05:22:29;;;;;;;5.40;4.77;;;7.60;1.00;;;;;;5150339;27;20580;-84
2023/12/12 05:24:56;;;;;;;7.87;5.27;;;7.60;1.00;;;;;;5145860;27;21247;-80
2023/12/12 05:27:23;;;;;;;5.63;4.77;;;7.60;1.00;;;;;;5127419;27;20462;-81
2023/12/12 05:29:51;;;;;;;7.03;4.50;;;7.60;1.00;;;;;;5132616;27;20543;-80
2023/12/12 05:32:19;;;;;;;4.90;4.10;;;7.60;1.00;;;;;;5146835;27;20473;-82
2023/12/12 05:34:46;;;;;;;8.87;4.57;;;7.60;1.00;;;;;;5131683;27;20524;-82
2023/12/12 05:37:13;;;;;;;10.03;4.70;;;7.50;1.00;;;;;;5135799;27;21467;-84
2023/12/12 05:39:40;;;;;;;6.17;4.50;;;7.60;1.00;;;;;;5155629;27;20471;-82
2023/12/12 05:42:07;;;;;;;5.93;5.13;;;7.50;1.00;;;;;;5140062;27;20563;-81
2023/12/12 05:44:35;;;;;;;7.30;5.13;;;7.50;1.00;;;;;;5149912;27;20435;-83
2023/12/12 05:47:02;;;;;;;4.78;4.20;;;7.50;1.00;;;;;;5145065;27;20464;-77
2023/12/12 05:49:30;;;;;;;4.75;4.22;;;7.60;1.00;;;;;;5156300;27;20861;-80
2023/12/12 05:51:58;;;;;;;6.13;5.53;;;7.50;1.00;;;;;;5154926;27;20234;-83
2023/12/12 05:54:25;;;;;;;6.33;4.60;;;7.50;1.00;;;;;;5145309;27;20344;-83
2023/12/12 05:56:52;;;;;;;7.77;5.60;;;7.50;1.00;;;;;;5158143;27;20460;-79
2023/12/12 05:59:18;;;;;;;8.93;5.63;;;7.50;1.00;;;;;;5147774;27;20862;-76
2023/12/12 06:01:46;;;;;;;9.33;5.30;;;7.50;1.00;;;;;;5142761;27;20524;-77
2023/12/12 06:04:14;;;;;;;6.50;4.77;;;7.50;1.00;;;;;;5150288;27;20423;-77
2023/12/12 06:06:49;;;;;;;8.77;5.80;;;7.50;1.00;;;;;;5150569;27;21011;-77
2023/12/12 06:09:16;;;;;;;7.00;5.50;;;7.50;1.00;;;;;;5148512;27;20479;-77
2023/12/12 06:11:44;;;;;;;6.13;4.60;;;7.60;1.00;;;;;;5148719;27;20456;-77
2023/12/12 06:14:12;;;;;;;6.53;5.13;;;7.70;1.00;;;;;;5150431;27;20487;-80
2023/12/12 06:16:40;;;;;;;12.50;5.80;;;7.60;1.00;;;;;;5148957;27;21182;-74
2023/12/12 06:19:09;;;;;;;7.80;6.60;;;7.60;1.00;;;;;;5151408;27;20463;-75
2023/12/12 06:21:36;;;;;;;6.40;5.33;;;7.70;1.00;;;;;;5139922;27;20494;-76
2023/12/12 06:24:07;;;;;;;10.30;6.77;;;7.70;1.00;;;;;;5152592;27;20460;-80
2023/12/12 06:26:35;;;;;;;7.50;5.93;;;7.60;1.00;;;;;;5148665;27;20451;-76
2023/12/12 06:29:02;;;;;;;9.40;7.37;;;7.60;1.00;;;;;;5141044;27;20533;-79
2023/12/12 06:31:29;;;;;;;12.67;11.37;;;7.70;1.00;;;;;;5143818;27;20498;-76
2023/12/12 06:33:56;;;;;;;9.03;6.97;;;7.60;1.00;;;;;;5150611;27;21050;-76
2023/12/12 06:36:24;;;;;;;8.77;7.23;;;7.70;1.00;;;;;;5149086;27;20477;-77
2023/12/12 06:38:51;;;;;;;9.83;7.33;;;7.70;1.00;;;;;;5151729;27;20515;-76
2023/12/12 06:41:22;;;;;;;7.83;6.43;;;7.60;1.00;;;;;;5149547;27;20469;-78
2023/12/12 06:43:49;;;;;;;9.77;6.67;;;7.50;1.00;;;;;;5139907;27;20477;-79
2023/12/12 06:46:19;;;;;;;8.20;7.10;;;7.40;1.00;;;;;;5143536;27;20464;-77
2023/12/12 06:48:46;;;;;;;7.67;6.73;;;7.40;1.00;;;;;;5151797;27;21308;-77
2023/12/12 06:51:13;;;;;;;10.70;6.75;;;7.40;1.00;;;;;;5147444;27;20451;-78
2023/12/12 06:53:44;;;;;;;7.73;6.50;;;7.50;1.00;;;;;;5149031;27;20229;-77
2023/12/12 06:56:12;;;;;;;9.03;6.97;;;7.50;1.00;;;;;;5149663;27;20424;-76
2023/12/12 06:58:41;;;;;;;11.20;6.30;;;7.50;1.00;;;;;;5149757;27;21265;-79
2023/12/12 07:01:09;;;;;;;8.65;6.65;;;7.40;1.00;;;;;;5139262;27;20455;-79
2023/12/12 07:03:36;;;;;;;10.70;6.60;;;7.50;1.00;;;;;;5142985;27;20235;-79
2023/12/12 07:06:03;;;;;;;7.07;6.43;;;7.50;1.00;;;;;;5141734;27;22415;-78
2023/12/12 07:08:33;;;;;;;7.10;6.40;;;7.50;1.00;;;;;;5144534;27;20547;-77
2023/12/12 07:11:00;;;;;;;7.57;5.93;;;7.40;1.00;;;;;;5143785;27;20447;-78
2023/12/12 07:13:28;;;;;;;8.43;6.50;;;7.40;1.00;;;;;;5143122;27;20940;-77
2023/12/12 07:15:58;;;;;;;11.10;8.40;;;7.40;1.00;;;;;;5142576;27;20460;-76
2023/12/12 07:18:25;;;;;;;9.77;7.30;;;7.40;1.00;;;;;;5142645;27;20552;-77
2023/12/12 07:20:53;;;;;;;9.10;7.30;;;7.50;1.00;;;;;;5145713;27;20448;-76
2023/12/12 07:23:21;;;;;;;9.47;8.47;;;7.60;1.00;;;;;;5123836;27;20987;-77
2023/12/12 07:25:48;;;;;;;11.20;7.57;;;7.60;1.00;;;;;;5140686;27;20483;-76
2023/12/12 07:28:15;;;;;;;8.50;7.47;;;7.60;1.00;;;;;;5144450;27;20568;-77
2023/12/12 07:30:43;;;;;;;8.60;7.80;;;7.60;1.00;;;;;;5135943;27;21024;-77
2023/12/12 07:33:11;;;;;;;8.53;7.63;;;7.60;1.00;;;;;;5137447;27;21123;-79
2023/12/12 07:35:38;;;;;;;11.50;7.87;;;7.60;1.00;;;;;;5127953;27;20733;-79
2023/12/12 07:38:07;;;;;;;9.97;8.07;;;7.50;1.00;;;;;;5141223;27;20478;-76
2023/12/12 07:40:34;;;;;;;8.90;8.17;;;7.50;1.00;;;;;;5132745;27;20448;-75
2023/12/12 07:43:01;;;;;;;10.50;8.07;;;7.50;1.00;;;;;;5137235;27;21542;-77
2023/12/12 07:45:28;;;;;;;13.60;9.60;;;7.50;1.00;;;;;;5139038;27;21184;-79
2023/12/12 07:47:55;;;;;;;13.53;9.03;;;7.50;1.00;;;;;;5139189;27;20429;-78
2023/12/12 07:50:24;;;;;;;11.53;10.10;;;7.50;1.00;;;;;;5125794;27;20450;-75
2023/12/12 07:52:53;;;;;;;10.40;9.30;;;7.50;1.00;;;;;;5143650;27;20531;-78
2023/12/12 07:55:20;;;;;;;15.47;10.70;;;7.60;1.00;;;;;;5145185;27;20524;-76
2023/12/12 07:57:47;;;;;;;13.83;9.40;;;7.60;1.00;;;;;;5146222;27;20498;-79
2023/12/12 08:00:15;;;;;;;13.03;10.00;;;7.60;1.00;;;;;;5148696;27;20539;-80
2023/12/12 08:02:42;;;;;;;13.67;9.40;;;7.60;1.00;;;;;;5141023;27;20976;-81
2023/12/12 08:05:09;;;;;;;10.87;8.53;;;7.50;1.00;;;;;;5132866;27;20950;-80
2023/12/12 08:07:38;;;;;;;12.53;9.20;;;7.60;1.00;;;;;;5138809;27;20474;-76
2023/12/12 08:10:13;;;;;;;12.63;9.87;;;7.60;1.00;;;;;;5128539;27;20916;-78
2023/12/12 08:12:40;;;;;;;12.23;10.03;;;7.60;1.00;;;;;;5122170;27;20451;-80
2023/12/12 08:15:08;;;;;;;15.80;9.80;;;7.60;1.00;;;;;;5147709;27;20522;-79
2023/12/12 08:17:36;;;;;;;15.47;9.07;;;7.60;1.00;;;;;;5147182;27;20424;-79
2023/12/12 08:20:06;;;;;;;14.20;9.70;;;7.50;1.00;;;;;;5146104;27;20497;-79
2023/12/12 08:22:33;;;;;;;13.87;11.20;;;7.50;1.00;;;;;;5145819;27;20465;-79
2023/12/12 08:25:01;;;;;;;18.00;13.60;;;7.50;1.00;;;;;;5147011;27;20487;-81
2023/12/12 08:27:28;;;;;;;17.47;11.00;;;7.50;1.00;;;;;;5142329;27;20476;-81
2023/12/12 08:29:55;;;;;;;15.60;10.90;;;7.50;1.00;;;;;;5141737;27;20587;-78
2023/12/12 08:32:22;;;;;;;13.93;11.43;;;7.60;1.00;;;;;;5132599;27;20455;-79
2023/12/12 08:34:49;;;;;;;12.17;10.70;;;7.60;1.00;;;;;;5125287;27;20459;-79
2023/12/12 08:37:17;;;;;;;14.17;9.90;;;7.60;1.00;;;;;;5148476;27;20520;-80
2023/12/12 08:39:43;;;;;;;13.97;10.03;;;7.60;1.00;;;;;;5146644;27;20465;-80
2023/12/12 08:42:14;;;;;;;12.80;11.47;;;7.50;1.00;;;;;;5146725;27;20556;-79
2023/12/12 08:44:41;;;;;;;17.10;10.47;;;7.60;1.00;;;;;;5145332;27;20453;-79
2023/12/12 08:47:08;;;;;;;12.10;10.10;;;7.50;1.00;;;;;;5146688;27;21305;-79
2023/12/12 08:49:37;;;;;;;12.57;8.90;;;7.50;1.00;;;;;;5147155;27;20965;-80
2023/12/12 08:52:07;;;;;;;11.00;9.17;;;7.50;1.00;;;;;;5144073;27;20467;-80
2023/12/12 08:54:35;;;;;;;13.63;10.33;;;7.60;1.00;;;;;;5143322;27;20445;-79
2023/12/12 08:57:02;;;;;;;10.70;8.30;;;7.60;1.00;;;;;;5146023;27;20482;-79
2023/12/12 08:59:31;;;;;;;12.50;8.90;;;7.60;1.00;;;;;;5149378;27;20948;-79
2023/12/12 09:01:58;;;;;;;14.65;10.18;;;7.50;1.00;;;;;;5140635;27;20516;-78
2023/12/12 09:04:25;;;;;;;9.97;8.83;;;7.50;1.00;;;;;;5142300;27;20238;-79
2023/12/12 09:06:52;;;;;;;11.20;9.40;;;7.60;1.00;;;;;;5145869;27;21009;-80
2023/12/12 09:09:19;;;;;;;12.57;9.02;;;7.70;1.00;;;;;;5145478;27;20436;-81
2023/12/12 09:11:47;;;;;;;12.85;8.50;;;7.60;1.00;;;;;;5145364;27;20323;-81
2023/12/12 09:14:15;;;;;;;12.10;10.10;;;7.60;1.00;;;;;;5149448;27;20236;-83
2023/12/12 09:16:46;;;;;;;12.03;9.63;;;7.50;1.00;;;;;;5150009;27;20467;-83
2023/12/12 09:19:16;;;;;;;12.63;8.95;;;7.50;1.00;;;;;;5143644;27;20453;-82
2023/12/12 09:21:43;;;;;;;11.02;7.85;;;7.60;1.00;;;;;;5138034;27;20239;-81
2023/12/12 09:24:11;;;;;;;12.63;7.18;;;7.50;1.00;;;;;;5148415;27;20238;-79
2023/12/12 09:26:38;;;;;;;13.10;7.47;;;7.50;1.00;;;;;;5146600;27;20250;-79
2023/12/12 09:29:06;;;;;;;12.85;8.13;;;7.50;1.00;;;;;;5148065;27;20464;-79
2023/12/12 09:31:34;;;;;;;10.33;7.90;;;7.50;1.00;;;;;;5145312;27;20240;-82
2023/12/12 09:34:03;;;;;;;12.00;7.30;;;7.50;1.00;;;;;;5147511;27;20500;-82
2023/12/12 09:36:30;;;;;;;11.33;8.80;;;7.50;1.00;;;;;;5146567;27;20475;-80
2023/12/12 09:38:58;;;;;;;9.57;6.63;;;7.60;1.00;;;;;;5145889;27;20904;-80
2023/12/12 09:41:26;;;;;;;9.73;6.87;;;7.50;1.00;;;;;;5132167;27;21788;-74
2023/12/12 09:43:55;;;;;;;8.97;7.17;;;7.60;1.00;;;;;;5141817;27;20455;-79
2023/12/12 09:46:24;;;;;;;6.73;6.03;;;7.60;1.00;;;;;;5147103;27;20464;-77
2023/12/12 09:48:52;;;;;;;7.97;6.07;;;7.60;1.00;;;;;;5146612;27;20972;-75
2023/12/12 09:51:22;;;;;;;10.30;6.27;;;7.50;1.00;;;;;;5126995;27;20946;-79
2023/12/12 09:53:54;;;;;;;13.53;7.63;;;7.50;1.00;;;;;;5144091;27;20538;-79
2023/12/12 09:56:23;;;;;;;7.47;6.40;;;7.40;1.00;;;;;;5147177;27;20475;-79
2023/12/12 09:58:50;;;;;;;8.93;6.37;;;7.40;1.00;;;;;;5142938;27;20458;-81
2023/12/12 10:01:19;;;;;;;10.67;7.77;;;7.40;1.00;;;;;;5149332;27;20466;-78
2023/12/12 10:03:47;;;;;;;9.80;6.40;;;7.50;1.00;;;;;;5150143;27;20480;-78
2023/12/12 10:06:14;;;;;;;8.70;6.80;;;7.50;1.00;;;;;;5140861;27;20505;-76
2023/12/12 10:08:43;;;;;;;7.73;6.47;;;7.50;1.00;;;;;;5140091;27;20471;-79
2023/12/12 10:11:11;;;;;;;9.37;6.80;;;7.50;1.00;;;;;;5146764;27;20459;-78
2023/12/12 10:13:50;;;;;;;8.10;6.30;;;7.50;1.00;;;;;;5140568;27;20447;-79
2023/12/12 10:16:19;;;;;;;7.87;5.80;;;7.50;1.00;;;;;;5150697;27;20548;-80
2023/12/12 10:18:49;;;;;;;8.93;6.80;;;7.50;1.00;;;;;;5147714;27;20444;-81
2023/12/12 10:21:17;;;;;;;7.20;6.60;;;7.70;1.00;;;;;;5151397;27;20459;-81
2023/12/12 10:23:47;;;;;;;11.60;7.73;;;7.80;1.00;;;;;;5150766;27;20561;-78
2023/12/12 10:26:15;;;;;;;14.20;7.40;;;7.80;1.00;;;;;;5151498;27;20550;-79
2023/12/12 10:28:43;;;;;;;10.30;7.03;;;7.80;1.00;;;;;;5149936;27;20474;-79
2023/12/12 10:31:11;;;;;;;6.83;6.20;;;7.80;1.00;;;;;;5149270;27;20550;-79
2023/12/12 10:33:38;;;;;;;10.90;8.50;;;7.80;1.00;;;;;;5148084;27;20455;-81
2023/12/12 10:36:10;;;;;;;9.13;6.37;;;7.80;1.00;;;;;;5149367;27;20484;-80
2023/12/12 10:38:39;;;;;;;7.33;6.50;;;7.80;1.00;;;;;;5148888;27;20443;-80
2023/12/12 10:41:15;;;;;;;9.00;7.00;;;7.80;1.00;;;;;;5149322;27;20490;-80
2023/12/12 10:43:47;;;;;;;5.70;5.20;;;7.90;1.00;;;;;;5148183;27;20574;-82
2023/12/12 10:46:16;;;;;;;6.70;5.47;;;7.80;1.00;;;;;;5149767;27;20461;-80
2023/12/12 10:48:46;;;;;;;5.03;4.57;;;7.80;1.00;;;;;;5147195;27;20564;-78
2023/12/12 10:51:14;;;;;;;5.03;4.53;;;7.80;1.00;;;;;;5147055;27;20918;-80
2023/12/12 10:53:43;;;;;;;7.90;5.20;;;7.80;1.00;;;;;;5151578;27;20555;-79
2023/12/12 10:56:12;;;;;;;6.43;4.57;;;7.80;1.00;;;;;;5153838;27;21211;-80
2023/12/12 10:58:49;;;;;;;6.53;4.33;;;7.90;1.00;;;;;;5153308;27;20501;-79
2023/12/12 11:01:17;;;;;;;6.90;4.40;;;8.00;1.00;;;;;;5147396;27;20462;-78
2023/12/12 11:03:45;;;;;;;6.83;6.13;;;8.00;1.00;;;;;;5147684;27;20511;-77
2023/12/12 11:06:12;;;;;;;5.23;4.73;;;8.10;1.00;;;;;;5147670;27;20529;-78
2023/12/12 11:08:42;;;;;;;7.80;6.07;;;8.20;1.00;;;;;;5146063;27;20452;-79
2023/12/12 11:11:13;;;;;;;7.00;6.20;;;8.30;1.00;;;;;;5146749;27;20526;-82
2023/12/12 11:13:43;;;;;;;12.67;10.20;;;8.30;1.00;;;;;;5145544;27;20608;-80
2023/12/12 11:16:21;;;;;;;6.87;6.10;;;8.20;1.00;;;;;;5151289;27;24046;-76
2023/12/12 11:18:52;;;;;;;7.57;6.10;;;8.20;1.00;;;;;;5142966;27;20476;-79
2023/12/12 11:21:44;;;;;;;10.50;6.90;;;8.10;1.00;;;;;;5127362;27;20533;-80
2023/12/12 11:24:12;;;;;;;7.27;5.70;;;8.10;1.00;;;;;;5149959;27;20456;-79
2023/12/12 11:26:44;;;;;;;8.40;7.50;;;8.20;1.00;;;;;;5137713;27;20536;-81
2023/12/12 11:29:11;;;;;;;8.70;7.13;;;8.20;1.00;;;;;;5154281;27;20421;-79
2023/12/12 11:31:58;;;;;;;10.77;6.80;;;8.10;1.00;;;;;;5139376;27;20552;-77
2023/12/12 11:34:26;;;;;;;10.57;9.23;;;8.10;1.00;;;;;;5149859;27;20558;-80
2023/12/12 11:36:57;;;;;;;10.37;6.27;;;8.10;1.00;;;;;;5150437;27;20490;-78
2023/12/12 11:39:37;;;;;;;7.30;5.50;;;8.20;1.00;;;;;;5145793;27;20583;-80
2023/12/12 11:42:06;;;;;;;11.00;7.20;;;8.30;1.00;;;;;;5150062;27;20460;-78
2023/12/12 11:44:46;;;;;;;10.23;8.30;;;8.30;1.00;;;;;;5147146;27;20843;-79
2023/12/12 11:47:23;;;;;;;12.20;6.90;;;8.30;1.00;;;;;;5147613;27;20532;-79
2023/12/12 11:49:50;;;;;;;11.03;6.03;;;8.30;1.00;;;;;;5146829;27;21066;-79
2023/12/12 11:52:50;;;;;;;7.50;5.90;;;8.40;1.00;;;;;;5128736;27;20602;-77
2023/12/12 11:55:23;;;;;;;9.53;6.20;;;8.30;1.00;;;;;;5141171;27;21154;-78
2023/12/12 11:57:50;;;;;;;8.73;6.43;;;8.40;1.00;;;;;;5145051;27;20557;-76
2023/12/12 12:00:20;;;;;;;7.33;5.87;;;8.30;1.00;;;;;;5142672;27;20440;-76
2023/12/12 12:02:48;;;;;;;7.63;6.50;;;8.30;1.00;;;;;;5147753;27;20537;-79
2023/12/12 12:05:17;;;;;;;6.73;5.10;;;8.40;1.00;;;;;;5148164;27;20514;-76
2023/12/12 12:07:44;;;;;;;6.63;5.90;;;8.50;1.00;;;;;;5144690;27;20559;-77
2023/12/12 12:10:11;;;;;;;9.30;5.33;;;8.60;1.00;;;;;;5147599;27;20443;-77
2023/12/12 12:12:40;;;;;;;7.20;5.47;;;8.70;1.00;;;;;;5144356;27;20453;-77
2023/12/12 12:15:09;;;;;;;7.77;5.63;;;8.60;1.00;;;;;;5143827;27;21265;-78
2023/12/12 12:17:39;;;;;;;6.97;5.37;;;8.70;1.00;;;;;;5149427;27;20544;-78
2023/12/12 12:20:08;;;;;;;11.13;6.90;;;8.80;1.00;;;;;;5146683;27;20436;-80
2023/12/12 12:22:39;;;;;;;7.53;6.30;;;8.80;1.00;;;;;;5144926;27;20526;-81
2023/12/12 12:25:08;;;;;;;8.23;4.90;;;8.80;1.00;;;;;;5135330;27;20455;-80
2023/12/12 12:27:37;;;;;;;8.87;6.50;;;8.90;1.00;;;;;;5135043;27;20516;-78
2023/12/12 12:30:08;;;;;;;7.33;5.70;;;9.30;1.00;;;;;;5140221;27;20468;-80
2023/12/12 12:32:35;;;;;;;6.07;4.67;;;9.80;1.00;;;;;;5151063;27;20912;-77
2023/12/12 12:35:11;;;;;;;4.50;4.10;;;10.50;1.00;;;;;;5145816;27;20457;-80
2023/12/12 12:37:40;;;;;;;6.60;4.93;;;11.50;1.00;;;;;;5146446;27;21369;-78
2023/12/12 12:40:10;;;;;;;5.43;4.93;;;12.80;1.00;;;;;;5147820;27;20449;-77
2023/12/12 12:42:38;;;;;;;6.00;3.60;;;14.30;1.00;;;;;;5145717;27;20450;-79
2023/12/12 12:45:07;;;;;;;4.93;3.83;;;15.90;1.00;;;;;;5147237;27;20444;-80
2023/12/12 12:47:34;;;;;;;5.37;3.60;;;17.00;1.00;;;;;;5148860;27;20459;-79
2023/12/12 12:50:02;;;;;;;5.70;4.70;;;17.40;1.00;;;;;;5141656;27;20452;-79
2023/12/12 12:52:31;;;;;;;6.33;4.60;;;16.70;1.00;;;;;;5145785;27;20452;-80
2023/12/12 12:54:58;;;;;;;5.47;3.93;;;15.60;1.00;;;;;;5148562;27;20455;-79
2023/12/12 12:57:25;;;;;;;5.70;4.60;;;14.60;1.00;;;;;;5144574;27;20471;-78
2023/12/12 12:59:52;;;;;;;5.03;3.80;;;14.00;1.00;;;;;;5144735;27;20957;-81
2023/12/12 13:02:21;;;;;;;8.33;5.07;;;13.60;1.00;;;;;;5146067;27;20548;-81
2023/12/12 13:04:51;;;;;;;5.20;4.80;;;13.30;1.00;;;;;;5154666;27;20455;-80
2023/12/12 13:07:21;;;;;;;6.47;4.50;;;12.80;1.00;;;;;;5147988;27;20485;-81
2023/12/12 13:09:50;;;;;;;5.83;4.17;;;12.40;1.00;;;;;;5138575;27;20550;-81